sensor_id;sensor_type;location;lat;lon;timestamp;temperature;humidity
8338;DHT22;4206;48.634;9.516;2022-08-11T00:00:19;17.40;87.30
8338;DHT22;4206;48.634;9.516;2022-08-11T00:02:50;17.40;87.80
8338;DHT22;4206;48.634;9.516;2022-08-11T00:05:19;17.30;88.70
8338;DHT22;4206;48.634;9.516;2022-08-11T00:07:49;17.20;89.50
8338;DHT22;4206;48.634;9.516;2022-08-11T00:10:18;17.20;88.00
8338;DHT22;4206;48.634;9.516;2022-08-11T00:12:51;17.20;88.20
8338;DHT22;4206;48.634;9.516;2022-08-11T00:15:17;17.10;88.30
8338;DHT22;4206;48.634;9.516;2022-08-11T00:17:43;17.00;88.70
8338;DHT22;4206;48.634;9.516;2022-08-11T00:20:12;17.00;90.30
8338;DHT22;4206;48.634;9.516;2022-08-11T00:22:40;17.00;90.30
8338;DHT22;4206;48.634;9.516;2022-08-11T00:25:22;16.90;90.40
8338;DHT22;4206;48.634;9.516;2022-08-11T00:27:48;16.80;90.60
8338;DHT22;4206;48.634;9.516;2022-08-11T00:30:15;16.70;90.60
8338;DHT22;4206;48.634;9.516;2022-08-11T00:32:43;16.60;90.70
8338;DHT22;4206;48.634;9.516;2022-08-11T00:35:12;16.70;91.30
8338;DHT22;4206;48.634;9.516;2022-08-11T00:37:38;16.60;91.10
8338;DHT22;4206;48.634;9.516;2022-08-11T00:40:07;16.60;91.70
8338;DHT22;4206;48.634;9.516;2022-08-11T00:45:31;16.60;92.40
8338;DHT22;4206;48.634;9.516;2022-08-11T00:50:46;16.40;92.30
8338;DHT22;4206;48.634;9.516;2022-08-11T01:01:45;16.30;93.50
8338;DHT22;4206;48.634;9.516;2022-08-11T01:13:05;16.20;93.80
8338;DHT22;4206;48.634;9.516;2022-08-11T01:46:51;15.70;96.20
8338;DHT22;4206;48.634;9.516;2022-08-11T01:52:28;15.60;97.40
8338;DHT22;4206;48.634;9.516;2022-08-11T01:55:14;15.50;97.30
8338;DHT22;4206;48.634;9.516;2022-08-11T01:57:51;15.50;97.50
8338;DHT22;4206;48.634;9.516;2022-08-11T02:00:19;15.40;97.40
8338;DHT22;4206;48.634;9.516;2022-08-11T02:03:04;15.40;97.70
8338;DHT22;4206;48.634;9.516;2022-08-11T02:11:21;15.20;99.60
8338;DHT22;4206;48.634;9.516;2022-08-11T02:22:56;15.20;99.90
8338;DHT22;4206;48.634;9.516;2022-08-11T02:25:49;15.10;99.90
8338;DHT22;4206;48.634;9.516;2022-08-11T02:30:59;15.10;99.90
8338;DHT22;4206;48.634;9.516;2022-08-11T02:33:42;15.20;99.90
8338;DHT22;4206;48.634;9.516;2022-08-11T02:36:11;15.30;99.60
8338;DHT22;4206;48.634;9.516;2022-08-11T02:39:01;15.40;99.10
8338;DHT22;4206;48.634;9.516;2022-08-11T02:41:55;15.50;99.00
8338;DHT22;4206;48.634;9.516;2022-08-11T02:44:50;15.50;98.50
8338;DHT22;4206;48.634;9.516;2022-08-11T02:50:38;15.70;98.90
8338;DHT22;4206;48.634;9.516;2022-08-11T02:53:23;15.70;98.80
8338;DHT22;4206;48.634;9.516;2022-08-11T03:01:40;15.50;99.80
8338;DHT22;4206;48.634;9.516;2022-08-11T03:04:13;15.50;99.90
8338;DHT22;4206;48.634;9.516;2022-08-11T03:06:51;15.40;99.90
8338;DHT22;4206;48.634;9.516;2022-08-11T03:09:26;15.60;99.90
8338;DHT22;4206;48.634;9.516;2022-08-11T03:12:01;15.50;99.90
8338;DHT22;4206;48.634;9.516;2022-08-11T03:18:02;15.40;99.90
8338;DHT22;4206;48.634;9.516;2022-08-11T03:20:33;15.40;99.90
8338;DHT22;4206;48.634;9.516;2022-08-11T03:23:10;15.40;99.90
8338;DHT22;4206;48.634;9.516;2022-08-11T03:28:33;15.30;99.90
8338;DHT22;4206;48.634;9.516;2022-08-11T03:33:52;15.20;99.90
8338;DHT22;4206;48.634;9.516;2022-08-11T04:07:18;14.50;99.90
8338;DHT22;4206;48.634;9.516;2022-08-11T04:30:05;14.10;99.90
8338;DHT22;4206;48.634;9.516;2022-08-11T04:40:49;14.10;99.90
8338;DHT22;4206;48.634;9.516;2022-08-11T04:57:21;14.40;99.90
8338;DHT22;4206;48.634;9.516;2022-08-11T05:00:11;14.50;99.90
8338;DHT22;4206;48.634;9.516;2022-08-11T05:14:26;15.10;99.90
8338;DHT22;4206;48.634;9.516;2022-08-11T05:17:12;15.30;99.90
8338;DHT22;4206;48.634;9.516;2022-08-11T05:19:54;15.30;99.90
8338;DHT22;4206;48.634;9.516;2022-08-11T05:22:36;15.40;99.90
8338;DHT22;4206;48.634;9.516;2022-08-11T05:25:28;15.50;99.90
8338;DHT22;4206;48.634;9.516;2022-08-11T05:28:12;15.70;99.90
8338;DHT22;4206;48.634;9.516;2022-08-11T05:30:57;15.90;99.90
8338;DHT22;4206;48.634;9.516;2022-08-11T05:33:50;16.00;99.90
8338;DHT22;4206;48.634;9.516;2022-08-11T05:36:49;16.20;99.90
8338;DHT22;4206;48.634;9.516;2022-08-11T05:39:22;16.30;99.90
8338;DHT22;4206;48.634;9.516;2022-08-11T05:42:06;16.50;99.90
8338;DHT22;4206;48.634;9.516;2022-08-11T05:44:49;17.00;99.90
8338;DHT22;4206;48.634;9.516;2022-08-11T05:47:33;17.10;99.90
8338;DHT22;4206;48.634;9.516;2022-08-11T05:50:17;17.10;99.90
8338;DHT22;4206;48.634;9.516;2022-08-11T05:53:00;17.30;99.90
8338;DHT22;4206;48.634;9.516;2022-08-11T05:55:42;17.40;99.90
8338;DHT22;4206;48.634;9.516;2022-08-11T05:58:23;17.60;99.90
8338;DHT22;4206;48.634;9.516;2022-08-11T06:00:50;17.80;99.90
8338;DHT22;4206;48.634;9.516;2022-08-11T06:03:26;17.80;99.90
8338;DHT22;4206;48.634;9.516;2022-08-11T06:05:53;18.00;99.90
8338;DHT22;4206;48.634;9.516;2022-08-11T06:08:27;18.20;99.90
8338;DHT22;4206;48.634;9.516;2022-08-11T06:10:59;18.40;99.90
8338;DHT22;4206;48.634;9.516;2022-08-11T06:13:26;18.70;99.90
8338;DHT22;4206;48.634;9.516;2022-08-11T06:15:52;18.90;99.90
8338;DHT22;4206;48.634;9.516;2022-08-11T06:18:20;19.20;99.90
8338;DHT22;4206;48.634;9.516;2022-08-11T06:20:49;19.50;99.90
8338;DHT22;4206;48.634;9.516;2022-08-11T06:23:16;19.80;99.90
8338;DHT22;4206;48.634;9.516;2022-08-11T06:25:45;20.10;99.90
8338;DHT22;4206;48.634;9.516;2022-08-11T06:28:11;20.40;99.90
8338;DHT22;4206;48.634;9.516;2022-08-11T06:30:40;20.80;99.90
8338;DHT22;4206;48.634;9.516;2022-08-11T06:33:13;21.10;99.90
8338;DHT22;4206;48.634;9.516;2022-08-11T06:36:03;21.40;99.90
8338;DHT22;4206;48.634;9.516;2022-08-11T06:41:29;22.10;97.10
8338;DHT22;4206;48.634;9.516;2022-08-11T06:46:44;22.50;97.40
8338;DHT22;4206;48.634;9.516;2022-08-11T06:49:13;22.70;96.30
8338;DHT22;4206;48.634;9.516;2022-08-11T06:51:57;23.10;94.50
8338;DHT22;4206;48.634;9.516;2022-08-11T06:54:28;23.30;95.10
8338;DHT22;4206;48.634;9.516;2022-08-11T06:56:55;23.50;94.10
8338;DHT22;4206;48.634;9.516;2022-08-11T06:59:37;23.70;93.70
8338;DHT22;4206;48.634;9.516;2022-08-11T07:02:26;23.90;92.50
8338;DHT22;4206;48.634;9.516;2022-08-11T07:13:48;24.40;91.60
8338;DHT22;4206;48.634;9.516;2022-08-11T07:16:33;24.70;90.00
8338;DHT22;4206;48.634;9.516;2022-08-11T07:19:05;24.60;87.70
8338;DHT22;4206;48.634;9.516;2022-08-11T07:21:48;24.60;88.40
8338;DHT22;4206;48.634;9.516;2022-08-11T07:24:46;24.70;89.20
8338;DHT22;4206;48.634;9.516;2022-08-11T07:27:36;24.90;89.00
8338;DHT22;4206;48.634;9.516;2022-08-11T07:30:18;25.10;87.50
8338;DHT22;4206;48.634;9.516;2022-08-11T07:32:50;25.10;88.10
8338;DHT22;4206;48.634;9.516;2022-08-11T07:35:19;25.30;87.10
8338;DHT22;4206;48.634;9.516;2022-08-11T07:37:51;25.50;87.40
8338;DHT22;4206;48.634;9.516;2022-08-11T07:40:22;25.70;86.40
8338;DHT22;4206;48.634;9.516;2022-08-11T07:42:49;25.80;83.20
8338;DHT22;4206;48.634;9.516;2022-08-11T07:45:15;26.00;84.40
8338;DHT22;4206;48.634;9.516;2022-08-11T07:47:57;26.00;82.30
8338;DHT22;4206;48.634;9.516;2022-08-11T07:50:41;26.10;82.50
8338;DHT22;4206;48.634;9.516;2022-08-11T07:53:23;26.30;81.80
8338;DHT22;4206;48.634;9.516;2022-08-11T07:55:49;26.30;81.60
8338;DHT22;4206;48.634;9.516;2022-08-11T07:58:20;26.30;82.90
8338;DHT22;4206;48.634;9.516;2022-08-11T08:01:02;26.70;82.70
8338;DHT22;4206;48.634;9.516;2022-08-11T08:03:43;27.10;82.40
8338;DHT22;4206;48.634;9.516;2022-08-11T08:06:27;27.50;79.30
8338;DHT22;4206;48.634;9.516;2022-08-11T08:09:09;28.00;80.30
8338;DHT22;4206;48.634;9.516;2022-08-11T08:11:52;28.10;77.00
8338;DHT22;4206;48.634;9.516;2022-08-11T08:14:33;28.10;74.40
8338;DHT22;4206;48.634;9.516;2022-08-11T08:17:15;28.20;74.30
8338;DHT22;4206;48.634;9.516;2022-08-11T08:19:56;28.50;75.60
8338;DHT22;4206;48.634;9.516;2022-08-11T08:22:22;28.70;73.60
8338;DHT22;4206;48.634;9.516;2022-08-11T08:24:48;28.50;73.80
8338;DHT22;4206;48.634;9.516;2022-08-11T08:27:14;28.90;72.90
8338;DHT22;4206;48.634;9.516;2022-08-11T08:29:42;29.50;70.30
8338;DHT22;4206;48.634;9.516;2022-08-11T08:32:24;29.90;69.70
8338;DHT22;4206;48.634;9.516;2022-08-11T08:34:53;30.20;69.50
8338;DHT22;4206;48.634;9.516;2022-08-11T08:37:22;30.80;69.70
8338;DHT22;4206;48.634;9.516;2022-08-11T08:39:49;31.60;66.80
8338;DHT22;4206;48.634;9.516;2022-08-11T08:42:30;32.40;62.80
8338;DHT22;4206;48.634;9.516;2022-08-11T08:45:12;32.90;59.90
8338;DHT22;4206;48.634;9.516;2022-08-11T08:47:42;33.00;59.70
8338;DHT22;4206;48.634;9.516;2022-08-11T08:50:12;33.00;59.60
8338;DHT22;4206;48.634;9.516;2022-08-11T08:52:41;33.20;58.10
8338;DHT22;4206;48.634;9.516;2022-08-11T08:55:14;33.90;57.00
8338;DHT22;4206;48.634;9.516;2022-08-11T08:57:43;33.80;56.00
8338;DHT22;4206;48.634;9.516;2022-08-11T09:00:10;33.90;55.80
8338;DHT22;4206;48.634;9.516;2022-08-11T09:02:38;34.30;55.90
8338;DHT22;4206;48.634;9.516;2022-08-11T09:05:05;35.00;54.40
8338;DHT22;4206;48.634;9.516;2022-08-11T09:07:35;35.30;54.20
8338;DHT22;4206;48.634;9.516;2022-08-11T09:10:02;35.80;53.50
8338;DHT22;4206;48.634;9.516;2022-08-11T09:12:30;36.30;51.50
8338;DHT22;4206;48.634;9.516;2022-08-11T09:14:57;35.70;50.40
8338;DHT22;4206;48.634;9.516;2022-08-11T09:17:33;34.80;51.70
8338;DHT22;4206;48.634;9.516;2022-08-11T09:20:04;34.60;52.00
8338;DHT22;4206;48.634;9.516;2022-08-11T09:22:33;34.30;50.90
8338;DHT22;4206;48.634;9.516;2022-08-11T09:25:15;34.70;51.60
8338;DHT22;4206;48.634;9.516;2022-08-11T09:27:56;34.60;52.70
8338;DHT22;4206;48.634;9.516;2022-08-11T09:30:24;34.80;51.10
8338;DHT22;4206;48.634;9.516;2022-08-11T09:32:55;35.40;50.50
8338;DHT22;4206;48.634;9.516;2022-08-11T09:35:24;35.30;50.80
8338;DHT22;4206;48.634;9.516;2022-08-11T09:37:51;36.00;49.30
8338;DHT22;4206;48.634;9.516;2022-08-11T09:40:32;36.00;49.80
8338;DHT22;4206;48.634;9.516;2022-08-11T09:43:02;36.00;49.50
8338;DHT22;4206;48.634;9.516;2022-08-11T09:45:46;36.50;48.40
8338;DHT22;4206;48.634;9.516;2022-08-11T09:48:17;36.60;47.40
8338;DHT22;4206;48.634;9.516;2022-08-11T09:50:47;36.40;47.10
8338;DHT22;4206;48.634;9.516;2022-08-11T09:53:15;36.20;47.30
8338;DHT22;4206;48.634;9.516;2022-08-11T09:55:43;36.10;46.40
8338;DHT22;4206;48.634;9.516;2022-08-11T09:58:11;36.60;46.50
8338;DHT22;4206;48.634;9.516;2022-08-11T10:00:38;36.60;45.10
8338;DHT22;4206;48.634;9.516;2022-08-11T10:03:16;36.40;46.50
8338;DHT22;4206;48.634;9.516;2022-08-11T10:05:47;36.60;47.00
8338;DHT22;4206;48.634;9.516;2022-08-11T10:08:30;36.70;45.40
8338;DHT22;4206;48.634;9.516;2022-08-11T10:10:58;37.60;44.20
8338;DHT22;4206;48.634;9.516;2022-08-11T10:13:29;38.00;44.60
8338;DHT22;4206;48.634;9.516;2022-08-11T10:16:02;37.20;45.60
8338;DHT22;4206;48.634;9.516;2022-08-11T10:18:34;37.30;44.60
8338;DHT22;4206;48.634;9.516;2022-08-11T10:21:28;38.00;43.60
8338;DHT22;4206;48.634;9.516;2022-08-11T10:23:57;38.50;42.30
8338;DHT22;4206;48.634;9.516;2022-08-11T10:26:41;37.80;42.80
8338;DHT22;4206;48.634;9.516;2022-08-11T10:29:27;37.70;42.90
8338;DHT22;4206;48.634;9.516;2022-08-11T10:32:11;37.00;43.00
8338;DHT22;4206;48.634;9.516;2022-08-11T10:34:53;36.80;43.10
8338;DHT22;4206;48.634;9.516;2022-08-11T10:37:22;36.60;43.40
8338;DHT22;4206;48.634;9.516;2022-08-11T10:39:50;36.50;44.20
8338;DHT22;4206;48.634;9.516;2022-08-11T10:42:16;36.00;44.30
8338;DHT22;4206;48.634;9.516;2022-08-11T10:44:59;36.30;44.60
8338;DHT22;4206;48.634;9.516;2022-08-11T10:47:27;36.30;43.70
8338;DHT22;4206;48.634;9.516;2022-08-11T10:50:09;36.10;43.30
8338;DHT22;4206;48.634;9.516;2022-08-11T10:52:50;36.80;41.80
8338;DHT22;4206;48.634;9.516;2022-08-11T10:55:33;36.90;40.90
8338;DHT22;4206;48.634;9.516;2022-08-11T10:58:15;36.20;42.30
8338;DHT22;4206;48.634;9.516;2022-08-11T11:00:58;36.60;41.60
8338;DHT22;4206;48.634;9.516;2022-08-11T11:03:27;36.30;41.20
8338;DHT22;4206;48.634;9.516;2022-08-11T11:05:59;36.30;41.50
8338;DHT22;4206;48.634;9.516;2022-08-11T11:08:28;35.50;41.90
8338;DHT22;4206;48.634;9.516;2022-08-11T11:11:12;36.40;42.00
8338;DHT22;4206;48.634;9.516;2022-08-11T11:13:44;36.80;42.00
8338;DHT22;4206;48.634;9.516;2022-08-11T11:16:27;36.70;42.00
8338;DHT22;4206;48.634;9.516;2022-08-11T11:19:11;36.50;42.60
8338;DHT22;4206;48.634;9.516;2022-08-11T11:21:38;37.20;42.20
8338;DHT22;4206;48.634;9.516;2022-08-11T11:24:17;38.10;41.10
8338;DHT22;4206;48.634;9.516;2022-08-11T11:37:15;39.50;38.70
8338;DHT22;4206;48.634;9.516;2022-08-11T11:44:37;39.10;38.40
8338;DHT22;4206;48.634;9.516;2022-08-11T11:47:04;39.10;38.80
8338;DHT22;4206;48.634;9.516;2022-08-11T11:49:32;38.70;39.50
8338;DHT22;4206;48.634;9.516;2022-08-11T11:52:03;38.40;40.50
8338;DHT22;4206;48.634;9.516;2022-08-11T11:54:31;38.40;40.30
8338;DHT22;4206;48.634;9.516;2022-08-11T11:56:59;38.50;39.10
8338;DHT22;4206;48.634;9.516;2022-08-11T11:59:48;38.10;39.20
8338;DHT22;4206;48.634;9.516;2022-08-11T12:02:30;38.00;38.80
8338;DHT22;4206;48.634;9.516;2022-08-11T12:04:55;37.70;39.20
8338;DHT22;4206;48.634;9.516;2022-08-11T12:07:22;38.50;38.90
8338;DHT22;4206;48.634;9.516;2022-08-11T12:10:04;38.00;38.80
8338;DHT22;4206;48.634;9.516;2022-08-11T12:12:31;38.10;39.30
8338;DHT22;4206;48.634;9.516;2022-08-11T12:15:13;38.30;38.40
8338;DHT22;4206;48.634;9.516;2022-08-11T12:17:39;38.20;39.80
8338;DHT22;4206;48.634;9.516;2022-08-11T12:20:07;38.90;38.80
8338;DHT22;4206;48.634;9.516;2022-08-11T12:22:34;39.50;38.30
8338;DHT22;4206;48.634;9.516;2022-08-11T12:25:16;39.20;38.00
8338;DHT22;4206;48.634;9.516;2022-08-11T12:27:57;38.00;38.60
8338;DHT22;4206;48.634;9.516;2022-08-11T12:30:23;37.50;40.00
8338;DHT22;4206;48.634;9.516;2022-08-11T12:32:50;37.50;39.50
8338;DHT22;4206;48.634;9.516;2022-08-11T12:35:16;37.40;39.40
8338;DHT22;4206;48.634;9.516;2022-08-11T12:37:46;37.10;39.50
8338;DHT22;4206;48.634;9.516;2022-08-11T12:40:17;36.60;39.10
8338;DHT22;4206;48.634;9.516;2022-08-11T12:43:02;36.80;39.40
8338;DHT22;4206;48.634;9.516;2022-08-11T12:45:57;37.00;39.20
8338;DHT22;4206;48.634;9.516;2022-08-11T12:48:29;37.60;39.50
8338;DHT22;4206;48.634;9.516;2022-08-11T12:51:14;37.10;38.80
8338;DHT22;4206;48.634;9.516;2022-08-11T12:54:13;38.20;38.70
8338;DHT22;4206;48.634;9.516;2022-08-11T12:56:44;38.30;38.50
8338;DHT22;4206;48.634;9.516;2022-08-11T12:59:26;38.60;38.70
8338;DHT22;4206;48.634;9.516;2022-08-11T13:02:10;39.30;38.00
8338;DHT22;4206;48.634;9.516;2022-08-11T13:04:55;39.30;37.70
8338;DHT22;4206;48.634;9.516;2022-08-11T13:07:26;39.30;37.90
8338;DHT22;4206;48.634;9.516;2022-08-11T13:09:53;38.90;37.60
8338;DHT22;4206;48.634;9.516;2022-08-11T13:12:22;38.60;39.10
8338;DHT22;4206;48.634;9.516;2022-08-11T13:15:03;39.10;38.30
8338;DHT22;4206;48.634;9.516;2022-08-11T13:17:30;38.70;38.60
8338;DHT22;4206;48.634;9.516;2022-08-11T13:19:58;38.50;38.80
8338;DHT22;4206;48.634;9.516;2022-08-11T13:22:25;38.20;38.30
8338;DHT22;4206;48.634;9.516;2022-08-11T13:24:52;37.80;39.40
8338;DHT22;4206;48.634;9.516;2022-08-11T13:27:20;38.00;39.10
8338;DHT22;4206;48.634;9.516;2022-08-11T13:29:48;37.50;39.00
8338;DHT22;4206;48.634;9.516;2022-08-11T13:32:14;37.10;39.60
8338;DHT22;4206;48.634;9.516;2022-08-11T13:34:41;37.00;39.90
8338;DHT22;4206;48.634;9.516;2022-08-11T13:37:11;37.40;39.80
8338;DHT22;4206;48.634;9.516;2022-08-11T13:39:42;38.50;38.50
8338;DHT22;4206;48.634;9.516;2022-08-11T13:42:13;38.30;38.60
8338;DHT22;4206;48.634;9.516;2022-08-11T13:44:40;38.40;38.70
8338;DHT22;4206;48.634;9.516;2022-08-11T13:47:07;38.30;38.00
8338;DHT22;4206;48.634;9.516;2022-08-11T13:49:36;38.50;38.60
8338;DHT22;4206;48.634;9.516;2022-08-11T13:52:03;38.50;39.10
8338;DHT22;4206;48.634;9.516;2022-08-11T13:54:34;38.10;38.40
8338;DHT22;4206;48.634;9.516;2022-08-11T13:57:05;37.20;38.90
8338;DHT22;4206;48.634;9.516;2022-08-11T13:59:32;37.20;40.00
8338;DHT22;4206;48.634;9.516;2022-08-11T14:02:02;38.00;39.40
8338;DHT22;4206;48.634;9.516;2022-08-11T14:07:05;38.00;38.30
8338;DHT22;4206;48.634;9.516;2022-08-11T14:09:35;38.00;38.80
8338;DHT22;4206;48.634;9.516;2022-08-11T14:12:08;37.60;38.10
8338;DHT22;4206;48.634;9.516;2022-08-11T14:14:59;37.00;38.90
8338;DHT22;4206;48.634;9.516;2022-08-11T14:17:28;36.70;39.60
8338;DHT22;4206;48.634;9.516;2022-08-11T14:19:57;35.90;39.70
8338;DHT22;4206;48.634;9.516;2022-08-11T14:22:26;35.40;39.60
8338;DHT22;4206;48.634;9.516;2022-08-11T14:24:52;34.90;41.60
8338;DHT22;4206;48.634;9.516;2022-08-11T14:27:19;34.40;42.00
8338;DHT22;4206;48.634;9.516;2022-08-11T14:29:51;34.50;42.20
8338;DHT22;4206;48.634;9.516;2022-08-11T14:32:19;34.50;41.30
8338;DHT22;4206;48.634;9.516;2022-08-11T14:34:46;33.60;42.70
8338;DHT22;4206;48.634;9.516;2022-08-11T14:37:14;33.30;43.10
8338;DHT22;4206;48.634;9.516;2022-08-11T14:39:46;33.00;43.00
8338;DHT22;4206;48.634;9.516;2022-08-11T14:42:14;33.10;42.30
8338;DHT22;4206;48.634;9.516;2022-08-11T14:44:58;33.00;42.40
8338;DHT22;4206;48.634;9.516;2022-08-11T14:47:42;32.40;43.30
8338;DHT22;4206;48.634;9.516;2022-08-11T14:50:13;32.30;42.60
8338;DHT22;4206;48.634;9.516;2022-08-11T14:52:55;32.10;43.40
8338;DHT22;4206;48.634;9.516;2022-08-11T14:55:24;31.80;43.30
8338;DHT22;4206;48.634;9.516;2022-08-11T14:58:09;31.60;43.10
8338;DHT22;4206;48.634;9.516;2022-08-11T15:00:35;31.40;43.80
8338;DHT22;4206;48.634;9.516;2022-08-11T15:03:03;31.30;44.40
8338;DHT22;4206;48.634;9.516;2022-08-11T15:05:45;31.20;44.10
8338;DHT22;4206;48.634;9.516;2022-08-11T15:08:13;31.00;44.50
8338;DHT22;4206;48.634;9.516;2022-08-11T15:10:40;30.80;44.20
8338;DHT22;4206;48.634;9.516;2022-08-11T15:13:06;30.60;44.00
8338;DHT22;4206;48.634;9.516;2022-08-11T15:15:32;30.60;44.10
8338;DHT22;4206;48.634;9.516;2022-08-11T15:18:16;30.50;45.10
8338;DHT22;4206;48.634;9.516;2022-08-11T15:20:43;30.40;45.20
8338;DHT22;4206;48.634;9.516;2022-08-11T15:23:24;30.40;45.20
8338;DHT22;4206;48.634;9.516;2022-08-11T15:26:12;30.30;44.70
8338;DHT22;4206;48.634;9.516;2022-08-11T15:28:46;30.20;44.90
8338;DHT22;4206;48.634;9.516;2022-08-11T15:31:28;30.10;45.10
8338;DHT22;4206;48.634;9.516;2022-08-11T15:34:13;30.20;45.20
8338;DHT22;4206;48.634;9.516;2022-08-11T15:37:00;30.10;45.60
8338;DHT22;4206;48.634;9.516;2022-08-11T15:42:46;30.10;45.80
8338;DHT22;4206;48.634;9.516;2022-08-11T15:45:29;29.80;45.10
8338;DHT22;4206;48.634;9.516;2022-08-11T15:48:15;29.60;45.60
8338;DHT22;4206;48.634;9.516;2022-08-11T15:50:47;29.60;46.00
8338;DHT22;4206;48.634;9.516;2022-08-11T15:53:24;29.60;45.80
8338;DHT22;4206;48.634;9.516;2022-08-11T15:55:53;29.50;45.70
8338;DHT22;4206;48.634;9.516;2022-08-11T15:58:19;29.50;45.40
8338;DHT22;4206;48.634;9.516;2022-08-11T16:01:02;29.40;45.70
8338;DHT22;4206;48.634;9.516;2022-08-11T16:03:49;29.40;45.90
8338;DHT22;4206;48.634;9.516;2022-08-11T16:06:32;29.30;45.50
8338;DHT22;4206;48.634;9.516;2022-08-11T16:09:02;29.30;46.20
8338;DHT22;4206;48.634;9.516;2022-08-11T16:11:32;29.20;45.90
8338;DHT22;4206;48.634;9.516;2022-08-11T16:14:01;29.20;45.60
8338;DHT22;4206;48.634;9.516;2022-08-11T16:16:43;29.10;45.70
8338;DHT22;4206;48.634;9.516;2022-08-11T16:19:11;29.00;46.10
8338;DHT22;4206;48.634;9.516;2022-08-11T16:21:37;29.00;45.60
8338;DHT22;4206;48.634;9.516;2022-08-11T16:24:11;29.00;46.10
8338;DHT22;4206;48.634;9.516;2022-08-11T16:26:40;29.00;45.60
8338;DHT22;4206;48.634;9.516;2022-08-11T16:29:07;28.90;45.80
8338;DHT22;4206;48.634;9.516;2022-08-11T16:31:35;28.90;45.80
8338;DHT22;4206;48.634;9.516;2022-08-11T16:34:02;28.90;46.00
8338;DHT22;4206;48.634;9.516;2022-08-11T16:36:30;28.90;46.00
8338;DHT22;4206;48.634;9.516;2022-08-11T16:39:12;28.90;46.00
8338;DHT22;4206;48.634;9.516;2022-08-11T16:41:43;28.90;45.50
8338;DHT22;4206;48.634;9.516;2022-08-11T16:44:26;28.80;44.80
8338;DHT22;4206;48.634;9.516;2022-08-11T16:47:11;28.70;45.30
8338;DHT22;4206;48.634;9.516;2022-08-11T16:49:43;28.60;44.80
8338;DHT22;4206;48.634;9.516;2022-08-11T16:52:12;28.50;45.30
8338;DHT22;4206;48.634;9.516;2022-08-11T16:54:39;28.50;45.10
8338;DHT22;4206;48.634;9.516;2022-08-11T16:57:12;28.50;45.80
8338;DHT22;4206;48.634;9.516;2022-08-11T16:59:54;28.40;45.30
8338;DHT22;4206;48.634;9.516;2022-08-11T17:02:24;28.30;45.60
8338;DHT22;4206;48.634;9.516;2022-08-11T17:05:11;28.30;45.50
8338;DHT22;4206;48.634;9.516;2022-08-11T17:07:54;28.30;45.00
8338;DHT22;4206;48.634;9.516;2022-08-11T17:10:43;28.20;44.80
8338;DHT22;4206;48.634;9.516;2022-08-11T17:13:31;28.20;45.80
8338;DHT22;4206;48.634;9.516;2022-08-11T17:16:01;28.10;45.90
8338;DHT22;4206;48.634;9.516;2022-08-11T17:18:50;28.10;46.50
8338;DHT22;4206;48.634;9.516;2022-08-11T17:21:25;27.90;46.10
8338;DHT22;4206;48.634;9.516;2022-08-11T17:23:52;27.90;46.50
8338;DHT22;4206;48.634;9.516;2022-08-11T17:26:27;27.80;46.50
8338;DHT22;4206;48.634;9.516;2022-08-11T17:29:14;27.70;46.60
8338;DHT22;4206;48.634;9.516;2022-08-11T17:31:42;27.70;46.10
8338;DHT22;4206;48.634;9.516;2022-08-11T17:34:23;27.60;47.10
8338;DHT22;4206;48.634;9.516;2022-08-11T17:37:04;27.60;47.30
8338;DHT22;4206;48.634;9.516;2022-08-11T17:39:31;27.60;47.60
8338;DHT22;4206;48.634;9.516;2022-08-11T17:41:57;27.50;48.00
8338;DHT22;4206;48.634;9.516;2022-08-11T17:44:40;27.50;48.00
8338;DHT22;4206;48.634;9.516;2022-08-11T17:47:22;27.40;47.70
8338;DHT22;4206;48.634;9.516;2022-08-11T17:50:05;27.30;47.90
8338;DHT22;4206;48.634;9.516;2022-08-11T17:52:32;27.20;48.00
8338;DHT22;4206;48.634;9.516;2022-08-11T17:55:19;27.20;48.60
8338;DHT22;4206;48.634;9.516;2022-08-11T17:58:01;27.00;48.90
8338;DHT22;4206;48.634;9.516;2022-08-11T18:00:43;26.90;49.70
8338;DHT22;4206;48.634;9.516;2022-08-11T18:03:09;26.70;49.90
8338;DHT22;4206;48.634;9.516;2022-08-11T18:05:51;26.60;50.10
8338;DHT22;4206;48.634;9.516;2022-08-11T18:08:18;26.50;50.30
8338;DHT22;4206;48.634;9.516;2022-08-11T18:11:00;26.30;50.30
8338;DHT22;4206;48.634;9.516;2022-08-11T18:13:43;26.20;50.70
8338;DHT22;4206;48.634;9.516;2022-08-11T18:16:25;25.90;50.90
8338;DHT22;4206;48.634;9.516;2022-08-11T18:19:07;25.90;51.20
8338;DHT22;4206;48.634;9.516;2022-08-11T18:21:48;25.60;51.90
8338;DHT22;4206;48.634;9.516;2022-08-11T18:24:36;25.40;52.70
8338;DHT22;4206;48.634;9.516;2022-08-11T18:27:18;25.20;52.30
8338;DHT22;4206;48.634;9.516;2022-08-11T18:30:00;25.10;53.20
8338;DHT22;4206;48.634;9.516;2022-08-11T18:32:43;24.90;53.50
8338;DHT22;4206;48.634;9.516;2022-08-11T18:35:24;24.70;54.20
8338;DHT22;4206;48.634;9.516;2022-08-11T18:38:09;24.60;54.90
8338;DHT22;4206;48.634;9.516;2022-08-11T18:40:51;24.40;54.40
8338;DHT22;4206;48.634;9.516;2022-08-11T18:43:34;24.30;54.80
8338;DHT22;4206;48.634;9.516;2022-08-11T18:46:17;24.20;56.00
8338;DHT22;4206;48.634;9.516;2022-08-11T18:51:59;23.90;55.70
8338;DHT22;4206;48.634;9.516;2022-08-11T18:54:43;23.80;56.10
8338;DHT22;4206;48.634;9.516;2022-08-11T18:57:26;23.70;56.70
8338;DHT22;4206;48.634;9.516;2022-08-11T19:00:08;23.60;57.30
8338;DHT22;4206;48.634;9.516;2022-08-11T19:02:49;23.50;57.40
8338;DHT22;4206;48.634;9.516;2022-08-11T19:05:33;23.50;57.50
8338;DHT22;4206;48.634;9.516;2022-08-11T19:08:17;23.40;57.50
8338;DHT22;4206;48.634;9.516;2022-08-11T19:11:00;23.30;57.70
8338;DHT22;4206;48.634;9.516;2022-08-11T19:13:42;23.20;58.20
8338;DHT22;4206;48.634;9.516;2022-08-11T19:16:25;23.10;58.70
8338;DHT22;4206;48.634;9.516;2022-08-11T19:19:06;23.00;58.50
8338;DHT22;4206;48.634;9.516;2022-08-11T19:21:50;22.90;58.80
8338;DHT22;4206;48.634;9.516;2022-08-11T19:24:32;22.80;64.40
8338;DHT22;4206;48.634;9.516;2022-08-11T19:27:15;22.70;62.80
8338;DHT22;4206;48.634;9.516;2022-08-11T19:29:58;22.60;63.70
8338;DHT22;4206;48.634;9.516;2022-08-11T19:32:40;22.40;64.30
8338;DHT22;4206;48.634;9.516;2022-08-11T19:35:21;22.20;64.80
8338;DHT22;4206;48.634;9.516;2022-08-11T19:38:03;22.10;64.80
8338;DHT22;4206;48.634;9.516;2022-08-11T19:40:45;21.90;65.30
8338;DHT22;4206;48.634;9.516;2022-08-11T19:43:29;21.80;65.90
8338;DHT22;4206;48.634;9.516;2022-08-11T19:46:11;21.60;66.70
8338;DHT22;4206;48.634;9.516;2022-08-11T19:48:54;21.50;68.60
8338;DHT22;4206;48.634;9.516;2022-08-11T19:51:36;21.30;69.50
8338;DHT22;4206;48.634;9.516;2022-08-11T19:54:19;21.20;69.90
8338;DHT22;4206;48.634;9.516;2022-08-11T19:57:01;21.00;70.60
8338;DHT22;4206;48.634;9.516;2022-08-11T19:59:43;20.90;72.80
8338;DHT22;4206;48.634;9.516;2022-08-11T20:02:24;20.80;72.70
8338;DHT22;4206;48.634;9.516;2022-08-11T20:05:06;20.80;73.20
8338;DHT22;4206;48.634;9.516;2022-08-11T20:07:48;20.70;73.70
8338;DHT22;4206;48.634;9.516;2022-08-11T20:10:31;20.60;73.90
8338;DHT22;4206;48.634;9.516;2022-08-11T20:13:14;20.50;75.20
8338;DHT22;4206;48.634;9.516;2022-08-11T20:15:56;20.40;75.50
8338;DHT22;4206;48.634;9.516;2022-08-11T20:18:39;20.40;76.10
8338;DHT22;4206;48.634;9.516;2022-08-11T20:21:22;20.30;77.00
8338;DHT22;4206;48.634;9.516;2022-08-11T20:24:04;20.20;77.60
8338;DHT22;4206;48.634;9.516;2022-08-11T20:26:45;20.10;77.50
8338;DHT22;4206;48.634;9.516;2022-08-11T20:29:29;20.00;78.60
8338;DHT22;4206;48.634;9.516;2022-08-11T20:32:11;20.00;80.40